首页
METAR-TAF:

METAR-TAF

机场 :

乌隆他尼国际机场

乌隆他尼, 泰国

纬度: 17-23N, 经度: 102-48E, 海拔: 177米

当前天气观测

该预报发布于45分钟前的08:00 UTC
风速3节,风向南转西南,在东南西转西南之间变化
温度 23°C
湿度 94%
气压 1010 hPa
能見度: 5000
少量云层高于1000英尺
散云层高于4000英尺
多云层高于9000英尺
雨, 轻雾

METAR: VTUD 170800Z 20003KT 140V240 5000 RA BR FEW010 SCT040 BKN090 23/22 Q1010 NOSIG

时间: 15:45 (08:45 UTC)

预报

该预报发布于3小时和45分钟前的05:00 UTC
预报有效从17日的 06点(UTC)到 18日的 06点(UTC)
风速5节,风向西转西北
能見度: 9000
散云层高于3500英尺
短暂存在
从 17日的 06点(UTC)到 17日的 12点(UTC)
风速10节,风向多变
能見度: 3000
少量云层高于1800英尺, 积雨云.
散云层高于3500英尺
雷暴, 雨
成为
从 17日的 21点(UTC)到 17日的 23点(UTC)
风速2节,风向多变
能見度: 5000
多云层高于2500英尺
多云层高于8000英尺
轻雾
成为
从 18日的 01点(UTC)到 18日的 03点(UTC)
风速5节,风向西
能見度: 9000
散云层高于3500英尺
散云层高于10000英尺

TAF: VTUD 170500Z 1706/1806 30005KT 9000 SCT035 TEMPO 1706/1712 VRB10KT 3000 TSRA FEW018CB SCT035 BECMG 1721/1723 VRB02KT 5000 BR BKN025 BKN080 BECMG 1801/1803 27005KT 9000 NSW SCT035 SCT100

超过4000个机场的气象观测和天气预报(METAR&TAF报告)。

可查询的气象台以黄色和红色小点在地图上表示。

将鼠标移到小点上方,可查看气象台名称。

然后点击查看天气观测和预报。

如需切换地图:点击带黑十字的绿色按钮放大地图;点击带横线的绿色按钮缩小地图;或者点击绿色箭头查看邻近地区的地图。


METAR-TAF: